Time;durP1;ratioP1;P1;durP2;ratioP2;P2;SDS_P1;SDS_P2;PMS_P1;PMS_P2;Temp;Humidity;BMP_temperature;BMP_pressure;BME280_temperature;BME280_humidity;BME280_pressure;Samples;Min_cycle;Max_cycle;Signal;HPM_P1;HPM_P2
2023/10/08 00:01:35;;;;;;;;;;;21.30;76.70;;;;;;4942071;28;96291;-38
2023/10/08 00:04:04;;;;;;;;;;;21.30;76.60;;;;;;4940456;28;97554;-38
2023/10/08 00:06:30;;;;;;;;;;;21.20;76.60;;;;;;4951574;28;94920;-38
2023/10/08 00:08:59;;;;;;;;;;;21.20;76.50;;;;;;4956263;28;95013;-38
2023/10/08 00:11:26;;;;;;;;;;;21.20;76.40;;;;;;4950193;28;95816;-38
2023/10/08 00:13:55;;;;;;;;;;;21.20;76.50;;;;;;4949518;28;94723;-38
2023/10/08 00:16:21;;;;;;;;;;;21.20;77.20;;;;;;4949561;28;95696;-38
2023/10/08 00:18:50;;;;;;;;;;;21.20;76.40;;;;;;4953132;28;95980;-38
2023/10/08 00:21:19;;;;;;;;;;;21.10;76.40;;;;;;4945585;28;95275;-38
2023/10/08 00:23:52;;;;;;;;;;;21.10;76.70;;;;;;4954054;28;94828;-38
2023/10/08 00:26:27;;;;;;;;;;;21.10;76.30;;;;;;4954791;28;94892;-38
2023/10/08 00:28:56;;;;;;;;;;;21.10;76.20;;;;;;4952444;28;98495;-38
2023/10/08 00:31:25;;;;;;;;;;;21.10;76.20;;;;;;4948803;28;95009;-38
2023/10/08 00:33:52;;;;;;;;;;;21.10;76.20;;;;;;4948686;28;94981;-38
2023/10/08 00:36:18;;;;;;;;;;;21.10;76.30;;;;;;4955488;28;94698;-38
2023/10/08 00:38:44;;;;;;;;;;;21.00;76.30;;;;;;4951111;28;95326;-38
2023/10/08 00:41:16;;;;;;;;;;;21.00;76.20;;;;;;4948346;28;97944;-38
2023/10/08 00:43:45;;;;;;;;;;;21.00;76.20;;;;;;4949906;28;95646;-38
2023/10/08 00:46:24;;;;;;;;;;;21.00;76.30;;;;;;4954159;28;94634;-39
2023/10/08 00:48:53;;;;;;;;;;;21.00;76.30;;;;;;4949876;28;98590;-38
2023/10/08 00:53:58;;;;;;;;;;;21.00;76.10;;;;;;4944637;28;96647;-38
2023/10/08 00:56:46;;;;;;;;;;;21.00;76.10;;;;;;4949835;28;96840;-38
2023/10/08 00:59:15;;;;;;;;;;;21.00;76.10;;;;;;4955116;28;96753;-38
2023/10/08 01:01:51;;;;;;;;;;;21.00;76.90;;;;;;4942605;28;97385;-38
2023/10/08 01:04:17;;;;;;;;;;;21.00;76.10;;;;;;4946782;28;95557;-39
2023/10/08 01:06:43;;;;;;;;;;;20.90;76.00;;;;;;4949599;28;95534;-38
2023/10/08 01:09:17;;;;;;;;;;;21.00;76.10;;;;;;4955685;28;95315;-38
2023/10/08 01:11:49;;;;;;;;;;;20.90;76.00;;;;;;4951169;28;94996;-38
2023/10/08 01:14:15;;;;;;;;;;;20.90;76.00;;;;;;4957554;28;95774;-38
2023/10/08 01:16:45;;;;;;;;;;;20.90;76.00;;;;;;4948590;28;98947;-38
2023/10/08 01:19:14;;;;;;;;;;;20.90;75.90;;;;;;4956088;28;95250;-38
2023/10/08 01:21:40;;;;;;;;;;;20.90;75.80;;;;;;4949008;28;95575;-38
2023/10/08 01:24:06;;;;;;;;;;;20.90;76.00;;;;;;4953283;28;94943;-38
2023/10/08 01:26:39;;;;;;;;;;;20.90;76.00;;;;;;4953391;28;94694;-38
2023/10/08 01:29:06;;;;;;;;;;;20.80;76.00;;;;;;4950101;28;96330;-39
2023/10/08 01:31:32;;;;;;;;;;;20.80;75.90;;;;;;4945334;28;96906;-38
2023/10/08 01:33:57;;;;;;;;;;;20.80;75.90;;;;;;4954424;28;94874;-38
2023/10/08 01:36:25;;;;;;;;;;;20.80;75.90;;;;;;4948487;28;97078;-38
2023/10/08 01:38:50;;;;;;;;;;;20.80;75.80;;;;;;4952819;28;94691;-38
2023/10/08 01:41:19;;;;;;;;;;;20.80;75.90;;;;;;4950817;28;96836;-38
2023/10/08 01:43:45;;;;;;;;;;;20.80;75.80;;;;;;4950084;28;96124;-38
2023/10/08 01:46:12;;;;;;;;;;;20.80;75.80;;;;;;4951645;28;96016;-38
2023/10/08 01:48:41;;;;;;;;;;;20.70;75.80;;;;;;4954555;28;94044;-38
2023/10/08 01:51:11;;;;;;;;;;;20.80;75.90;;;;;;4950768;28;97517;-38
2023/10/08 01:53:41;;;;;;;;;;;20.80;75.80;;;;;;4947145;28;95731;-38
2023/10/08 01:56:06;;;;;;;;;;;20.80;75.70;;;;;;4951167;28;97658;-38
2023/10/08 01:58:33;;;;;;;;;;;20.70;75.70;;;;;;4946803;28;95587;-38
2023/10/08 02:01:00;;;;;;;;;;;20.70;75.80;;;;;;4949811;28;95174;-38
2023/10/08 02:03:27;;;;;;;;;;;20.70;75.90;;;;;;4948614;28;100714;-38
2023/10/08 02:05:53;;;;;;;;;;;20.70;75.70;;;;;;4950601;28;95013;-38
2023/10/08 02:08:19;;;;;;;;;;;20.70;75.80;;;;;;4949422;28;95055;-38
2023/10/08 02:10:47;;;;;;;;;;;20.70;75.80;;;;;;4947266;28;95108;-38
2023/10/08 02:13:14;;;;;;;;;;;20.60;75.90;;;;;;4942563;28;94156;-38
2023/10/08 02:15:49;;;;;;;;;;;20.60;75.80;;;;;;4957281;28;95356;-38
2023/10/08 02:18:15;;;;;;;;;;;20.60;75.90;;;;;;4957837;28;94692;-38
2023/10/08 02:20:41;;;;;;;;;;;20.60;75.80;;;;;;4951826;28;96754;-38
2023/10/08 02:23:06;;;;;;;;;;;20.60;75.90;;;;;;4950220;28;95676;-38
2023/10/08 02:25:34;;;;;;;;;;;20.60;75.90;;;;;;4949239;28;94699;-38
2023/10/08 02:28:02;;;;;;;;;;;20.60;75.90;;;;;;4950327;28;95087;-38
2023/10/08 02:30:28;;;;;;;;;;;20.60;75.70;;;;;;4947015;28;101511;-38
2023/10/08 02:32:53;;;;;;;;;;;20.60;75.80;;;;;;4943837;28;95014;-38
2023/10/08 02:35:19;;;;;;;;;;;20.60;75.90;;;;;;4950410;28;97454;-38
2023/10/08 02:37:45;;;;;;;;;;;20.50;75.80;;;;;;4946987;28;93963;-38
2023/10/08 02:40:30;;;;;;;;;;;20.50;75.90;;;;;;4948820;28;94615;-38
2023/10/08 02:42:58;;;;;;;;;;;20.50;75.90;;;;;;4946144;28;95380;-38
2023/10/08 02:45:27;;;;;;;;;;;20.50;75.80;;;;;;4955318;28;95993;-38
2023/10/08 02:47:52;;;;;;;;;;;20.50;75.90;;;;;;4950307;28;101522;-38
2023/10/08 02:50:18;;;;;;;;;;;20.50;76.00;;;;;;4953374;28;95389;-38
2023/10/08 02:52:47;;;;;;;;;;;20.50;75.80;;;;;;4951717;28;94772;-38
2023/10/08 02:55:57;;;;;;;;;;;20.50;75.80;;;;;;4950824;28;95717;-38
2023/10/08 02:57:58;;;;;;;;;;;20.50;75.90;;;;;;4939427;28;96139;-38
2023/10/08 03:00:29;;;;;;;;;;;20.50;75.90;;;;;;4945150;28;96114;-38
2023/10/08 03:03:01;;;;;;;;;;;20.50;75.90;;;;;;4959020;28;94669;-38
2023/10/08 03:05:30;;;;;;;;;;;20.50;75.90;;;;;;4951671;28;95121;-38
2023/10/08 03:07:57;;;;;;;;;;;20.40;75.90;;;;;;4956314;28;94736;-38
2023/10/08 03:10:31;;;;;;;;;;;20.40;75.90;;;;;;4947743;28;96166;-38
2023/10/08 03:13:03;;;;;;;;;;;20.40;75.80;;;;;;4948323;28;95644;-38
2023/10/08 03:15:30;;;;;;;;;;;20.40;75.80;;;;;;4949462;28;94877;-38
2023/10/08 03:17:57;;;;;;;;;;;20.40;75.70;;;;;;4950846;28;95436;-38
2023/10/08 03:20:38;;;;;;;;;;;20.50;75.80;;;;;;4951624;28;99003;-38
2023/10/08 03:23:12;;;;;;;;;;;20.40;75.70;;;;;;4948070;28;94809;-38
2023/10/08 03:25:41;;;;;;;;;;;20.40;75.60;;;;;;4947537;28;96375;-38
2023/10/08 03:28:12;;;;;;;;;;;20.40;75.60;;;;;;4956453;28;93918;-38
2023/10/08 03:30:47;;;;;;;;;;;20.40;75.70;;;;;;4951050;28;95159;-38
2023/10/08 03:33:21;;;;;;;;;;;20.40;75.70;;;;;;4945341;28;94843;-38
2023/10/08 03:35:55;;;;;;;;;;;20.40;75.70;;;;;;4948902;28;95857;-38
2023/10/08 03:38:44;;;;;;;;;;;20.30;75.70;;;;;;4945293;28;95486;-38
2023/10/08 03:41:20;;;;;;;;;;;20.40;75.60;;;;;;4943760;28;95785;-39
2023/10/08 03:46:31;;;;;;;;;;;20.40;75.70;;;;;;4948474;28;94842;-38
2023/10/08 03:48:57;;;;;;;;;;;20.40;75.70;;;;;;4946125;28;95641;-38
2023/10/08 03:51:27;;;;;;;;;;;20.30;75.70;;;;;;4947514;28;95113;-38
2023/10/08 03:53:59;;;;;;;;;;;20.30;75.70;;;;;;4955652;28;96129;-38
2023/10/08 03:56:26;;;;;;;;;;;20.30;75.80;;;;;;4927688;28;99445;-38
2023/10/08 03:58:54;;;;;;;;;;;20.30;75.80;;;;;;4945313;28;94990;-37
2023/10/08 04:01:20;;;;;;;;;;;20.30;75.60;;;;;;4946134;28;96078;-38
2023/10/08 04:06:22;;;;;;;;;;;20.30;75.50;;;;;;4948980;28;94841;-38
2023/10/08 04:11:51;;;;;;;;;;;20.30;75.70;;;;;;4944746;28;95070;-38
2023/10/08 04:14:20;;;;;;;;;;;20.30;76.50;;;;;;4951703;28;96592;-38
2023/10/08 04:16:46;;;;;;;;;;;20.30;75.70;;;;;;4951652;28;97343;-38
2023/10/08 04:19:12;;;;;;;;;;;20.30;75.80;;;;;;4951863;28;96421;-38
2023/10/08 04:21:39;;;;;;;;;;;20.20;75.80;;;;;;4956837;28;94676;-38
2023/10/08 04:24:05;;;;;;;;;;;20.20;75.80;;;;;;4951404;28;94824;-38
2023/10/08 04:26:32;;;;;;;;;;;20.20;75.70;;;;;;4950527;28;97538;-38
2023/10/08 04:29:02;;;;;;;;;;;20.20;75.70;;;;;;4945013;28;95288;-38
2023/10/08 04:31:35;;;;;;;;;;;20.20;75.80;;;;;;4948539;28;96682;-38
2023/10/08 04:34:00;;;;;;;;;;;20.20;75.80;;;;;;4947198;28;95305;-38
2023/10/08 04:36:26;;;;;;;;;;;20.20;75.80;;;;;;4945170;28;94744;-38
2023/10/08 04:38:54;;;;;;;;;;;20.20;75.80;;;;;;4956878;28;95884;-38
2023/10/08 04:41:22;;;;;;;;;;;20.20;75.80;;;;;;4947908;28;94578;-38
2023/10/08 04:43:49;;;;;;;;;;;20.20;75.90;;;;;;4954056;28;95113;-38
2023/10/08 04:48:58;;;;;;;;;;;20.20;75.90;;;;;;4954555;28;94875;-38
2023/10/08 04:51:24;;;;;;;;;;;20.20;75.90;;;;;;4944952;28;101917;-38
2023/10/08 04:53:49;;;;;;;;;;;20.10;75.80;;;;;;4954788;28;95555;-38
2023/10/08 04:56:18;;;;;;;;;;;20.10;75.90;;;;;;4947337;28;96912;-38
2023/10/08 04:58:47;;;;;;;;;;;20.10;75.90;;;;;;4950306;28;95102;-38
2023/10/08 05:09:11;;;;;;;;;;;20.10;75.90;;;;;;4960018;28;94009;-38
2023/10/08 05:11:46;;;;;;;;;;;20.10;75.90;;;;;;4942018;28;96070;-38
2023/10/08 05:17:03;;;;;;;;;;;20.00;75.80;;;;;;4949113;28;95820;-38
2023/10/08 05:25:24;;;;;;;;;;;20.10;76.00;;;;;;4953617;28;97225;-38
2023/10/08 05:46:39;;;;;;;;;;;20.00;75.70;;;;;;4946685;28;97953;-37
2023/10/08 05:52:25;;;;;;;;;;;20.00;75.90;;;;;;4945114;28;95929;-38
2023/10/08 05:59:39;;;;;;;;;;;20.00;75.90;;;;;;4953219;28;94990;-37
2023/10/08 06:02:26;;;;;;;;;;;19.90;75.90;;;;;;4949489;28;94027;-38
2023/10/08 06:05:43;;;;;;;;;;;20.00;75.90;;;;;;4951403;28;96371;-37
2023/10/08 06:13:04;;;;;;;;;;;19.90;76.50;;;;;;4951774;28;95061;-37
2023/10/08 06:18:28;;;;;;;;;;;19.90;75.80;;;;;;4954168;28;95120;-37
2023/10/08 06:20:58;;;;;;;;;;;19.90;75.70;;;;;;4945618;28;94612;-37
2023/10/08 06:23:24;;;;;;;;;;;19.90;75.70;;;;;;4943862;28;94778;-37
2023/10/08 06:25:56;;;;;;;;;;;19.90;75.80;;;;;;4938746;28;95386;-37
2023/10/08 06:28:25;;;;;;;;;;;19.90;75.80;;;;;;4949763;28;94540;-43
2023/10/08 06:30:56;;;;;;;;;;;19.90;75.90;;;;;;4941494;28;94936;-45
2023/10/08 06:33:30;;;;;;;;;;;19.90;75.90;;;;;;4953747;28;94570;-45
2023/10/08 06:36:02;;;;;;;;;;;19.90;75.70;;;;;;4941747;28;96123;-44
2023/10/08 06:38:34;;;;;;;;;;;19.90;75.60;;;;;;4938700;28;97558;-45
2023/10/08 06:41:00;;;;;;;;;;;19.90;75.60;;;;;;4949287;28;94944;-44
2023/10/08 06:43:26;;;;;;;;;;;19.90;75.60;;;;;;4947100;28;95754;-44
2023/10/08 06:45:52;;;;;;;;;;;19.90;75.50;;;;;;4945397;28;94595;-45
2023/10/08 06:48:23;;;;;;;;;;;19.90;75.50;;;;;;4942277;28;97083;-45
2023/10/08 06:50:49;;;;;;;;;;;19.90;75.40;;;;;;4948369;28;95317;-45
2023/10/08 06:53:15;;;;;;;;;;;19.90;75.40;;;;;;4944155;28;94024;-45
2023/10/08 06:55:41;;;;;;;;;;;19.90;75.50;;;;;;4949333;28;94615;-45
2023/10/08 06:58:14;;;;;;;;;;;19.90;76.20;;;;;;4943489;28;96227;-45
2023/10/08 07:00:46;;;;;;;;;;;19.90;75.50;;;;;;4948425;28;97706;-46
2023/10/08 07:03:14;;;;;;;;;;;19.90;76.30;;;;;;4949691;28;96571;-45
2023/10/08 07:05:41;;;;;;;;;;;19.80;75.50;;;;;;4948545;28;96828;-45
2023/10/08 07:08:12;;;;;;;;;;;19.80;75.50;;;;;;4951838;28;95978;-45
2023/10/08 07:10:38;;;;;;;;;;;19.80;75.40;;;;;;4949552;28;94526;-45
2023/10/08 07:13:07;;;;;;;;;;;19.90;75.40;;;;;;4950377;28;94601;-45
2023/10/08 07:15:33;;;;;;;;;;;19.90;75.30;;;;;;4939113;28;94956;-45
2023/10/08 07:18:08;;;;;;;;;;;19.90;75.30;;;;;;4943113;28;94636;-45
2023/10/08 07:20:38;;;;;;;;;;;19.90;75.10;;;;;;4945644;28;94752;-46
2023/10/08 07:23:09;;;;;;;;;;;19.90;75.30;;;;;;4941281;28;94578;-45
2023/10/08 07:25:37;;;;;;;;;;;19.90;75.30;;;;;;4939503;28;101085;-45
2023/10/08 07:28:12;;;;;;;;;;;19.90;75.30;;;;;;4947582;28;96403;-45
2023/10/08 07:30:43;;;;;;;;;;;20.00;75.20;;;;;;4946693;28;94690;-45
2023/10/08 07:33:17;;;;;;;;;;;19.90;75.10;;;;;;4951348;28;95915;-45
2023/10/08 07:36:11;;;;;;;;;;;20.00;75.00;;;;;;4936869;28;95344;-45
2023/10/08 07:38:32;;;;;;;;;;;20.00;75.00;;;;;;4936122;28;94910;-45
2023/10/08 07:40:58;;;;;;;;;;;20.00;75.00;;;;;;4948043;28;96659;-46
2023/10/08 07:43:24;;;;;;;;;;;20.00;75.00;;;;;;4942247;28;93875;-45
2023/10/08 07:45:53;;;;;;;;;;;20.00;75.10;;;;;;4951637;28;99736;-46
2023/10/08 07:48:20;;;;;;;;;;;20.00;75.10;;;;;;4948356;28;95163;-45
2023/10/08 07:50:50;;;;;;;;;;;20.00;75.00;;;;;;4950511;28;102333;-45
2023/10/08 07:53:19;;;;;;;;;;;20.00;75.10;;;;;;4935100;28;95014;-46
2023/10/08 07:55:46;;;;;;;;;;;20.00;75.10;;;;;;4937135;28;94494;-46
2023/10/08 07:58:14;;;;;;;;;;;20.00;75.10;;;;;;4940115;28;94325;-46
2023/10/08 08:00:40;;;;;;;;;;;20.00;75.90;;;;;;4943527;28;95317;-46
2023/10/08 08:03:06;;;;;;;;;;;20.00;76.00;;;;;;4940055;28;94700;-45
2023/10/08 08:05:34;;;;;;;;;;;20.10;76.00;;;;;;4944968;28;96454;-45
2023/10/08 08:08:05;;;;;;;;;;;20.00;76.20;;;;;;4939162;28;98600;-45
2023/10/08 08:10:36;;;;;;;;;;;20.10;76.30;;;;;;4942628;28;95329;-45
2023/10/08 08:13:06;;;;;;;;;;;20.00;76.50;;;;;;4944912;28;94366;-45
2023/10/08 08:15:39;;;;;;;;;;;20.10;76.70;;;;;;4929799;28;95647;-45
2023/10/08 08:18:06;;;;;;;;;;;20.10;76.80;;;;;;4946582;28;96083;-46
2023/10/08 08:20:43;;;;;;;;;;;20.20;76.70;;;;;;4951038;28;95407;-45
2023/10/08 08:23:09;;;;;;;;;;;20.20;77.30;;;;;;4943140;28;94431;-46
2023/10/08 08:28:28;;;;;;;;;;;20.20;76.10;;;;;;4948909;28;94941;-45
2023/10/08 08:30:55;;;;;;;;;;;20.10;76.00;;;;;;4944106;28;96317;-46
2023/10/08 08:33:24;;;;;;;;;;;20.20;76.00;;;;;;4939826;28;95237;-46
2023/10/08 08:36:05;;;;;;;;;;;20.20;76.10;;;;;;4944349;28;95348;-46
2023/10/08 08:38:32;;;;;;;;;;;20.20;76.30;;;;;;4945512;28;94626;-46
2023/10/08 08:41:07;;;;;;;;;;;20.20;76.40;;;;;;4938783;28;96458;-46
2023/10/08 08:43:34;;;;;;;;;;;20.20;76.30;;;;;;4933319;28;94702;-46
2023/10/08 08:46:01;;;;;;;;;;;20.20;76.40;;;;;;4942726;28;95438;-46
2023/10/08 08:48:27;;;;;;;;;;;20.20;76.40;;;;;;4942535;28;97508;-46
2023/10/08 08:50:52;;;;;;;;;;;20.30;76.40;;;;;;4945971;28;99289;-46
2023/10/08 08:53:19;;;;;;;;;;;20.20;76.50;;;;;;4943614;28;94839;-46
2023/10/08 08:55:46;;;;;;;;;;;20.20;76.30;;;;;;4948847;28;95953;-46
2023/10/08 08:58:12;;;;;;;;;;;20.30;76.20;;;;;;4938782;28;101981;-46
2023/10/08 09:00:38;;;;;;;;;;;20.30;76.00;;;;;;4947217;28;100613;-47
2023/10/08 09:03:06;;;;;;;;;;;20.30;75.90;;;;;;4937391;28;94866;-46
2023/10/08 09:05:34;;;;;;;;;;;20.30;75.80;;;;;;4945366;28;96182;-46
2023/10/08 09:08:05;;;;;;;;;;;20.40;75.70;;;;;;4949233;28;97031;-46
2023/10/08 09:10:36;;;;;;;;;;;20.40;75.60;;;;;;4948163;28;96336;-47
2023/10/08 09:13:03;;;;;;;;;;;20.40;75.50;;;;;;4946184;28;94921;-45
2023/10/08 09:15:29;;;;;;;;;;;20.40;75.20;;;;;;4945332;28;95516;-46
2023/10/08 09:18:00;;;;;;;;;;;20.40;75.10;;;;;;4939625;28;102399;-46
2023/10/08 09:20:27;;;;;;;;;;;20.40;75.20;;;;;;4945043;28;94615;-46
2023/10/08 09:23:07;;;;;;;;;;;20.50;75.10;;;;;;4938134;28;96926;-46
2023/10/08 09:25:33;;;;;;;;;;;20.50;75.10;;;;;;4942903;28;95103;-46
2023/10/08 09:27:58;;;;;;;;;;;20.50;75.00;;;;;;4946333;28;95432;-46
2023/10/08 09:30:25;;;;;;;;;;;20.50;75.00;;;;;;4930475;28;96242;-46
2023/10/08 09:32:51;;;;;;;;;;;20.60;75.20;;;;;;4939445;28;94793;-48
2023/10/08 09:35:18;;;;;;;;;;;20.70;75.20;;;;;;4939275;28;95722;-45
2023/10/08 09:37:44;;;;;;;;;;;20.70;75.30;;;;;;4949108;28;95000;-46
2023/10/08 09:40:11;;;;;;;;;;;20.80;75.10;;;;;;4949465;28;95338;-46
2023/10/08 09:42:38;;;;;;;;;;;20.80;75.10;;;;;;4946200;28;95175;-46
2023/10/08 09:45:05;;;;;;;;;;;20.80;74.90;;;;;;4938298;28;99757;-46
2023/10/08 09:47:34;;;;;;;;;;;20.80;74.80;;;;;;4946334;28;94098;-46
2023/10/08 09:50:07;;;;;;;;;;;20.80;74.80;;;;;;4935958;28;96013;-46
2023/10/08 09:52:47;;;;;;;;;;;20.80;74.70;;;;;;4931189;28;94987;-45
2023/10/08 09:55:14;;;;;;;;;;;20.90;74.90;;;;;;4938289;28;95910;-45
2023/10/08 09:57:39;;;;;;;;;;;20.90;75.20;;;;;;4949189;28;97266;-45
2023/10/08 10:00:10;;;;;;;;;;;20.80;75.50;;;;;;4939841;28;96456;-45
2023/10/08 10:02:37;;;;;;;;;;;20.90;75.40;;;;;;4944157;28;94291;-45
2023/10/08 10:05:03;;;;;;;;;;;20.80;75.60;;;;;;4943720;28;94153;-45
2023/10/08 10:07:29;;;;;;;;;;;20.80;75.40;;;;;;4939319;28;94978;-46
2023/10/08 10:09:55;;;;;;;;;;;20.90;75.70;;;;;;4937075;28;98009;-37
2023/10/08 10:12:25;;;;;;;;;;;20.70;74.60;;;;;;4949305;28;93993;-37
2023/10/08 10:14:55;;;;;;;;;;;20.60;74.30;;;;;;4950806;28;94854;-36
2023/10/08 10:17:22;;;;;;;;;;;20.70;75.00;;;;;;4937510;28;94741;-36
2023/10/08 10:20:01;;;;;;;;;;;20.60;75.40;;;;;;4946057;28;95530;-36
2023/10/08 10:22:28;;;;;;;;;;;20.60;75.30;;;;;;4944309;28;95239;-36
2023/10/08 10:24:53;;;;;;;;;;;20.60;75.70;;;;;;4952112;28;94593;-37
2023/10/08 10:27:19;;;;;;;;;;;20.70;75.40;;;;;;4935693;28;95583;-38
2023/10/08 10:29:47;;;;;;;;;;;20.70;75.50;;;;;;4944470;28;99712;-38
2023/10/08 10:32:14;;;;;;;;;;;20.70;76.40;;;;;;4944008;28;95541;-37
2023/10/08 10:34:41;;;;;;;;;;;20.80;75.40;;;;;;4942509;28;95246;-37
2023/10/08 10:37:25;;;;;;;;;;;20.80;75.80;;;;;;4947838;28;94436;-37
2023/10/08 10:39:52;;;;;;;;;;;20.90;75.60;;;;;;4938327;28;95612;-37
2023/10/08 10:42:21;;;;;;;;;;;20.80;75.30;;;;;;4947593;28;96656;-36
2023/10/08 10:44:50;;;;;;;;;;;20.90;75.50;;;;;;4938414;28;95201;-37
2023/10/08 10:52:19;;;;;;;;;;;20.90;74.20;;;;;;4936717;28;94854;-39
2023/10/08 10:54:58;;;;;;;;;;;21.00;73.80;;;;;;4944653;28;95465;-39
2023/10/08 10:57:34;;;;;;;;;;;21.10;74.50;;;;;;4947195;28;94717;-39
2023/10/08 11:01:23;;;;;;;;;;;21.10;73.60;;;;;;4940285;28;95198;-39
2023/10/08 11:03:10;;;;;;;;;;;21.10;74.60;;;;;;4927119;28;96072;-38
2023/10/08 11:05:37;;;;;;;;;;;21.10;74.20;;;;;;4939221;28;96341;-39
2023/10/08 11:08:07;;;;;;;;;;;21.20;74.70;;;;;;4940516;28;94643;-39
2023/10/08 11:10:40;;;;;;;;;;;21.20;74.60;;;;;;4935157;28;96360;-39
2023/10/08 11:13:14;;;;;;;;;;;21.30;74.10;;;;;;4948630;28;99681;-39
2023/10/08 11:15:43;;;;;;;;;;;21.30;73.90;;;;;;4952039;28;95385;-39
2023/10/08 11:18:11;;;;;;;;;;;21.30;74.90;;;;;;4944925;28;100739;-39
2023/10/08 11:20:39;;;;;;;;;;;21.30;74.00;;;;;;4947997;28;95922;-39
2023/10/08 11:23:21;;;;;;;;;;;21.40;73.10;;;;;;4941221;28;95689;-39
2023/10/08 11:26:02;;;;;;;;;;;21.40;74.00;;;;;;4943013;28;98536;-39
2023/10/08 11:28:28;;;;;;;;;;;21.50;74.10;;;;;;4944419;28;94465;-39
2023/10/08 11:30:56;;;;;;;;;;;21.50;74.40;;;;;;4937113;28;101869;-39
2023/10/08 11:33:22;;;;;;;;;;;21.60;73.30;;;;;;4949538;28;95145;-36
2023/10/08 11:36:00;;;;;;;;;;;21.60;72.40;;;;;;4949803;28;96173;-36
2023/10/08 11:38:27;;;;;;;;;;;21.60;73.60;;;;;;4939874;28;95886;-36
2023/10/08 11:40:56;;;;;;;;;;;21.60;72.80;;;;;;4947635;28;96087;-37
2023/10/08 11:43:23;;;;;;;;;;;21.70;73.00;;;;;;4938553;28;95196;-36
2023/10/08 11:45:48;;;;;;;;;;;21.70;73.60;;;;;;4946722;28;94748;-36
2023/10/08 11:48:17;;;;;;;;;;;21.70;73.60;;;;;;4936006;28;95063;-46
2023/10/08 11:50:43;;;;;;;;;;;21.80;72.90;;;;;;4951113;28;94511;-44
2023/10/08 11:53:11;;;;;;;;;;;21.80;73.30;;;;;;4955190;28;94524;-45
2023/10/08 11:55:38;;;;;;;;;;;21.80;71.90;;;;;;4945207;28;99117;-46
2023/10/08 11:58:09;;;;;;;;;;;21.90;73.00;;;;;;4947828;28;96122;-45
2023/10/08 12:00:45;;;;;;;;;;;21.90;72.90;;;;;;4920704;28;96493;-45
2023/10/08 12:03:11;;;;;;;;;;;22.00;73.20;;;;;;4945150;28;96637;-45
2023/10/08 12:05:38;;;;;;;;;;;22.00;72.40;;;;;;4944444;28;96540;-45
2023/10/08 12:08:08;;;;;;;;;;;22.00;70.70;;;;;;4949281;28;96009;-45
2023/10/08 12:10:34;;;;;;;;;;;22.00;70.90;;;;;;4946217;28;95188;-47
2023/10/08 12:13:00;;;;;;;;;;;22.00;71.00;;;;;;4936913;28;95337;-44
2023/10/08 12:15:38;;;;;;;;;;;22.10;70.10;;;;;;4942207;28;95382;-44
2023/10/08 12:20:48;;;;;;;;;;;22.00;70.70;;;;;;4928034;28;103078;-47
2023/10/08 12:23:26;;;;;;;;;;;22.00;71.20;;;;;;4945393;28;95247;-47
2023/10/08 12:25:52;;;;;;;;;;;22.00;71.50;;;;;;4943313;28;101305;-44
2023/10/08 12:28:18;;;;;;;;;;;22.00;71.20;;;;;;4944216;28;94721;-45
2023/10/08 12:30:44;;;;;;;;;;;22.00;70.00;;;;;;4944473;28;96343;-43
2023/10/08 12:33:12;;;;;;;;;;;22.00;70.30;;;;;;4945221;28;97562;-44
2023/10/08 12:35:39;;;;;;;;;;;22.00;70.60;;;;;;4939747;28;98237;-43
2023/10/08 12:38:05;;;;;;;;;;;22.10;70.20;;;;;;4943971;28;96653;-44
2023/10/08 12:40:42;;;;;;;;;;;22.10;71.00;;;;;;4951978;28;96413;-44
2023/10/08 12:43:08;;;;;;;;;;;22.10;71.00;;;;;;4945997;28;97335;-45
2023/10/08 12:45:33;;;;;;;;;;;22.10;70.60;;;;;;4933312;28;95542;-47
2023/10/08 12:47:59;;;;;;;;;;;22.10;70.60;;;;;;4944596;28;95057;-47
2023/10/08 12:50:42;;;;;;;;;;;22.10;70.60;;;;;;4938822;28;97423;-47
2023/10/08 12:53:08;;;;;;;;;;;22.20;69.10;;;;;;4950282;28;95145;-47
2023/10/08 12:55:39;;;;;;;;;;;22.20;69.30;;;;;;4948226;28;94639;-47
2023/10/08 12:58:10;;;;;;;;;;;22.20;69.70;;;;;;4952968;28;95037;-47
2023/10/08 13:00:41;;;;;;;;;;;22.20;69.20;;;;;;4946222;28;96769;-47
2023/10/08 13:03:15;;;;;;;;;;;22.30;69.90;;;;;;4945472;28;97053;-48
2023/10/08 13:05:44;;;;;;;;;;;22.30;70.10;;;;;;4939913;28;95011;-47
2023/10/08 13:08:10;;;;;;;;;;;22.30;70.20;;;;;;4938807;28;96303;-47
2023/10/08 13:10:41;;;;;;;;;;;22.30;70.10;;;;;;4937163;28;95576;-40
2023/10/08 13:13:06;;;;;;;;;;;22.40;69.90;;;;;;4938932;28;97904;-41
2023/10/08 13:15:35;;;;;;;;;;;22.40;69.40;;;;;;4942267;28;96477;-40
2023/10/08 13:18:03;;;;;;;;;;;22.40;69.40;;;;;;4938288;28;96551;-39
2023/10/08 13:20:33;;;;;;;;;;;22.40;69.60;;;;;;4942466;28;95866;-39
2023/10/08 13:23:01;;;;;;;;;;;22.50;70.00;;;;;;4932523;28;96663;-39
2023/10/08 13:25:27;;;;;;;;;;;22.40;70.00;;;;;;4940211;28;96076;-36
2023/10/08 13:27:54;;;;;;;;;;;22.50;69.70;;;;;;4942018;28;97528;-35
2023/10/08 13:30:20;;;;;;;;;;;22.50;69.60;;;;;;4956974;28;94936;-35
2023/10/08 13:32:46;;;;;;;;;;;22.50;70.40;;;;;;4940869;28;94202;-36
2023/10/08 13:35:11;;;;;;;;;;;22.50;70.60;;;;;;4946628;28;95195;-36
2023/10/08 13:37:37;;;;;;;;;;;22.50;70.30;;;;;;4944360;28;95075;-38
2023/10/08 13:40:03;;;;;;;;;;;22.50;69.50;;;;;;4955349;28;96048;-38
2023/10/08 13:42:29;;;;;;;;;;;22.60;68.60;;;;;;4952844;28;94729;-36
2023/10/08 13:45:07;;;;;;;;;;;22.60;68.40;;;;;;4947434;28;97502;-36
2023/10/08 13:47:33;;;;;;;;;;;22.60;69.20;;;;;;4935443;28;94904;-36
2023/10/08 13:49:59;;;;;;;;;;;22.60;69.30;;;;;;4934094;28;94791;-36
2023/10/08 13:52:26;;;;;;;;;;;22.60;68.50;;;;;;4941183;28;95143;-36
2023/10/08 13:54:54;;;;;;;;;;;22.70;68.20;;;;;;4944319;28;95944;-36
2023/10/08 13:57:20;;;;;;;;;;;22.70;67.50;;;;;;4948725;28;95662;-36
2023/10/08 13:59:46;;;;;;;;;;;22.70;67.10;;;;;;4927955;28;94769;-36
2023/10/08 14:02:15;;;;;;;;;;;22.70;66.80;;;;;;4929571;28;99275;-37
2023/10/08 14:04:43;;;;;;;;;;;22.70;67.30;;;;;;4946371;28;96758;-35
2023/10/08 14:07:11;;;;;;;;;;;22.70;67.70;;;;;;4940520;28;96060;-36
2023/10/08 14:09:38;;;;;;;;;;;22.80;67.20;;;;;;4938701;28;95680;-35
2023/10/08 14:12:07;;;;;;;;;;;22.70;66.80;;;;;;4942462;28;95246;-36
2023/10/08 14:14:34;;;;;;;;;;;22.70;67.10;;;;;;4946077;28;94662;-37
2023/10/08 14:17:03;;;;;;;;;;;22.70;68.20;;;;;;4947747;28;94562;-37
2023/10/08 14:19:36;;;;;;;;;;;22.60;68.60;;;;;;4943548;28;95224;-36
2023/10/08 14:22:03;;;;;;;;;;;22.60;68.90;;;;;;4945418;28;94366;-37
2023/10/08 14:24:32;;;;;;;;;;;22.60;69.00;;;;;;4948919;28;95639;-36
2023/10/08 14:27:03;;;;;;;;;;;22.60;69.00;;;;;;4940732;28;95355;-38
2023/10/08 14:29:29;;;;;;;;;;;22.50;68.90;;;;;;4954060;28;98250;-37
2023/10/08 14:31:56;;;;;;;;;;;22.60;69.40;;;;;;4940135;28;96131;-35
2023/10/08 14:42:55;;;;;;;;;;;22.60;69.00;;;;;;4946649;28;95527;-35
2023/10/08 14:45:31;;;;;;;;;;;22.60;68.50;;;;;;4943933;28;95466;-35
2023/10/08 14:47:57;;;;;;;;;;;22.70;68.60;;;;;;4945430;28;95540;-36
2023/10/08 14:50:23;;;;;;;;;;;22.80;68.40;;;;;;4951998;28;95562;-46
2023/10/08 14:52:49;;;;;;;;;;;22.70;68.70;;;;;;4942828;28;95779;-45
2023/10/08 14:55:15;;;;;;;;;;;22.80;68.90;;;;;;4936766;28;98284;-45
2023/10/08 14:57:42;;;;;;;;;;;22.90;68.60;;;;;;4943426;28;94773;-45
2023/10/08 15:00:09;;;;;;;;;;;22.90;68.80;;;;;;4947131;28;95126;-45
2023/10/08 15:02:34;;;;;;;;;;;22.80;69.20;;;;;;4950229;28;95017;-45
2023/10/08 15:05:01;;;;;;;;;;;22.80;69.20;;;;;;4934492;28;96960;-44
2023/10/08 15:07:27;;;;;;;;;;;22.80;69.70;;;;;;4945636;28;102234;-46
2023/10/08 15:09:57;;;;;;;;;;;22.80;69.60;;;;;;4937736;28;94966;-46
2023/10/08 15:12:25;;;;;;;;;;;22.90;69.70;;;;;;4956303;28;94105;-47
2023/10/08 15:14:51;;;;;;;;;;;22.90;69.70;;;;;;4949557;28;95470;-46
2023/10/08 15:17:17;;;;;;;;;;;22.80;70.00;;;;;;4937866;28;95214;-46
2023/10/08 15:19:42;;;;;;;;;;;22.90;69.60;;;;;;4939439;28;103392;-46
2023/10/08 15:22:08;;;;;;;;;;;22.90;69.00;;;;;;4934378;28;95292;-46
2023/10/08 15:24:36;;;;;;;;;;;22.80;68.60;;;;;;4936021;28;95108;-47
2023/10/08 15:27:04;;;;;;;;;;;22.90;70.20;;;;;;4942183;28;94791;-46
2023/10/08 15:29:29;;;;;;;;;;;22.90;71.10;;;;;;4936434;28;95346;-45
2023/10/08 15:31:56;;;;;;;;;;;22.90;71.50;;;;;;4940868;28;97920;-45
2023/10/08 15:34:23;;;;;;;;;;;22.90;72.10;;;;;;4940941;28;99732;-45
2023/10/08 15:36:49;;;;;;;;;;;22.80;72.50;;;;;;4948631;28;93857;-43
2023/10/08 15:39:22;;;;;;;;;;;22.80;72.80;;;;;;4945155;28;96098;-47
2023/10/08 15:41:51;;;;;;;;;;;22.70;73.10;;;;;;4946169;28;95243;-47
2023/10/08 15:44:23;;;;;;;;;;;22.70;73.10;;;;;;4938059;28;96901;-38
2023/10/08 15:46:49;;;;;;;;;;;22.80;73.40;;;;;;4939791;28;98133;-37
2023/10/08 15:49:14;;;;;;;;;;;22.80;74.00;;;;;;4937862;28;95219;-38
2023/10/08 15:51:40;;;;;;;;;;;22.70;74.00;;;;;;4945342;28;100577;-38